createdAt,value
2023-05-01T00:00:23.240Z,9.681121
2023-05-01T00:01:23.264Z,9.681220
2023-05-01T00:02:23.363Z,9.681123
2023-05-01T00:03:23.375Z,9.681192
2023-05-01T00:04:23.293Z,9.681250
2023-05-01T00:05:23.208Z,9.681157
2023-05-01T00:06:23.278Z,9.681134
2023-05-01T00:07:23.206Z,9.681102
2023-05-01T00:08:23.195Z,9.681099
2023-05-01T00:09:23.242Z,9.681092
2023-05-01T00:10:23.179Z,9.681096
2023-05-01T00:11:23.217Z,9.681118
2023-05-01T00:12:23.175Z,9.681057
2023-05-01T00:13:23.191Z,9.681068
2023-05-01T00:14:23.183Z,9.681072
2023-05-01T00:15:23.179Z,9.681048
2023-05-01T00:16:23.225Z,9.681037
2023-05-01T00:17:23.188Z,9.681053
2023-05-01T00:18:23.151Z,9.681077
2023-05-01T00:19:23.146Z,9.681118
2023-05-01T00:20:23.134Z,9.681094
2023-05-01T00:21:23.138Z,9.681085
2023-05-01T00:22:23.114Z,9.681051
2023-05-01T00:23:23.187Z,9.681080
2023-05-01T00:24:23.120Z,9.681057
2023-05-01T00:25:23.119Z,9.681017
2023-05-01T00:26:23.130Z,9.681002
2023-05-01T00:27:23.113Z,9.680997
2023-05-01T00:28:23.157Z,9.681025
2023-05-01T00:29:23.101Z,9.681071
2023-05-01T00:30:23.111Z,9.681046
2023-05-01T00:31:23.123Z,9.681019
2023-05-01T00:32:23.086Z,9.681005
2023-05-01T00:33:23.093Z,9.680990
2023-05-01T00:34:23.076Z,9.680918
2023-05-01T00:35:23.107Z,9.680995
2023-05-01T00:36:23.058Z,9.680935
2023-05-01T00:37:23.075Z,9.681028
2023-05-01T00:38:23.044Z,9.681043
2023-05-01T00:39:23.101Z,9.681118
2023-05-01T00:40:23.031Z,9.680966
2023-05-01T00:41:23.055Z,9.681132
2023-05-01T00:42:23.018Z,9.681124
2023-05-01T00:43:23.029Z,9.681151
2023-05-01T00:44:23.020Z,9.681093
2023-05-01T00:45:23.043Z,9.681091
2023-05-01T00:46:23.006Z,9.681081
2023-05-01T00:47:23.085Z,9.681068
2023-05-01T00:48:23.007Z,9.681088
2023-05-01T00:49:22.986Z,9.681147
2023-05-01T00:50:23.028Z,9.681120
2023-05-01T00:51:22.990Z,9.681107
2023-05-01T00:52:22.953Z,9.681059
2023-05-01T00:53:22.980Z,9.681055
2023-05-01T00:54:22.953Z,9.680979
2023-05-01T00:55:22.996Z,9.680995
2023-05-01T00:56:22.951Z,9.681004
2023-05-01T00:57:22.979Z,9.681066
2023-05-01T00:58:22.939Z,9.681059
2023-05-01T00:59:22.938Z,9.681059
2023-05-01T01:00:22.942Z,9.681065
2023-05-01T01:01:23.040Z,9.680977
2023-05-01T01:02:22.954Z,9.681011
2023-05-01T01:03:22.910Z,9.681013
2023-05-01T01:04:22.968Z,9.681073
2023-05-01T01:05:22.950Z,9.681100
2023-05-01T01:06:23.000Z,9.681047
2023-05-01T01:07:22.894Z,9.681100
2023-05-01T01:08:22.879Z,9.681148
2023-05-01T01:09:22.892Z,9.681001
2023-05-01T01:10:22.897Z,9.681033
2023-05-01T01:11:22.900Z,9.681166
2023-05-01T01:12:22.899Z,9.681099
2023-05-01T01:13:22.868Z,9.681128
2023-05-01T01:14:22.844Z,9.681014
2023-05-01T01:15:22.847Z,9.681087
2023-05-01T01:16:22.950Z,9.681121
2023-05-01T01:17:22.867Z,9.681114
2023-05-01T01:18:22.825Z,9.681124
2023-05-01T01:19:22.826Z,9.681024
2023-05-01T01:20:22.801Z,9.681049
2023-05-01T01:21:22.851Z,9.681035
2023-05-01T01:22:22.801Z,9.681037
2023-05-01T01:23:22.817Z,9.681062
2023-05-01T01:24:22.802Z,9.681082
2023-05-01T01:25:22.805Z,9.681054
2023-05-01T01:26:22.769Z,9.681087
2023-05-01T01:27:22.803Z,9.681057
2023-05-01T01:28:22.779Z,9.681005
2023-05-01T01:29:22.783Z,9.681008
2023-05-01T01:30:22.748Z,9.681039
2023-05-01T01:31:22.820Z,9.681016
2023-05-01T01:32:22.803Z,9.681035
2023-05-01T01:33:22.744Z,9.681033
2023-05-01T01:34:22.749Z,9.681057
2023-05-01T01:35:22.758Z,9.681018
2023-05-01T01:36:22.768Z,9.680999
2023-05-01T01:37:22.728Z,9.681038
2023-05-01T01:38:23.146Z,9.681102
2023-05-01T01:39:23.164Z,9.681092
2023-05-01T01:40:22.745Z,9.681046
2023-05-01T01:41:22.721Z,9.681049
2023-05-01T01:42:22.725Z,9.681035
2023-05-01T01:43:22.704Z,9.681076
2023-05-01T01:44:22.703Z,9.681038
2023-05-01T01:45:22.685Z,9.681155
2023-05-01T01:46:22.892Z,9.681063
2023-05-01T01:47:22.729Z,9.681075
2023-05-01T01:48:22.678Z,9.681118
2023-05-01T01:49:22.680Z,9.681055
2023-05-01T01:50:22.651Z,9.681009
2023-05-01T01:51:22.664Z,9.681077
2023-05-01T01:52:22.638Z,9.681182
2023-05-01T01:53:22.653Z,9.681168
2023-05-01T01:54:22.656Z,9.681229
2023-05-01T01:55:22.636Z,9.681164
2023-05-01T01:56:22.690Z,9.681216
2023-05-01T01:57:22.632Z,9.681041
2023-05-01T01:58:22.597Z,9.681102
2023-05-01T01:59:22.637Z,9.680979
2023-05-01T02:00:22.641Z,9.681126
2023-05-01T02:01:22.654Z,9.681116
2023-05-01T02:02:22.644Z,9.681097
2023-05-01T02:03:22.693Z,9.681089
2023-05-01T02:04:22.598Z,9.681148
2023-05-01T02:05:22.614Z,9.681046
2023-05-01T02:06:22.595Z,9.681109
2023-05-01T02:07:22.584Z,9.680972
2023-05-01T02:08:22.564Z,9.681163
2023-05-01T02:09:22.608Z,9.681154
2023-05-01T02:10:22.580Z,9.681136
2023-05-01T02:11:22.562Z,9.681048
2023-05-01T02:12:22.558Z,9.681099
2023-05-01T02:13:22.549Z,9.681097
2023-05-01T02:14:22.531Z,9.681087
2023-05-01T02:15:22.543Z,9.681071
2023-05-01T02:16:22.586Z,9.681055
2023-05-01T02:17:22.582Z,9.681016
2023-05-01T02:18:22.507Z,9.680997
2023-05-01T02:19:22.537Z,9.681067
2023-05-01T02:20:22.506Z,9.681063
2023-05-01T02:21:22.495Z,9.681118
2023-05-01T02:22:22.504Z,9.680988
2023-05-01T02:23:22.489Z,9.680947
2023-05-01T02:24:22.472Z,9.681072
2023-05-01T02:25:22.497Z,9.681000
2023-05-01T02:26:22.507Z,9.681059
2023-05-01T02:27:22.460Z,9.680978
2023-05-01T02:28:22.453Z,9.681069
2023-05-01T02:29:22.453Z,9.681045
2023-05-01T02:30:22.446Z,9.681033
2023-05-01T02:31:22.505Z,9.680954
2023-05-01T02:32:22.493Z,9.681061
2023-05-01T02:33:22.429Z,9.681154
2023-05-01T02:34:22.480Z,9.681101
2023-05-01T02:35:22.421Z,9.681108
2023-05-01T02:36:22.408Z,9.681204
2023-05-01T02:37:22.471Z,9.681200
2023-05-01T02:38:22.423Z,9.681220
2023-05-01T02:39:22.435Z,9.681238
2023-05-01T02:40:22.394Z,9.681247
2023-05-01T02:41:22.438Z,9.681162
2023-05-01T02:42:22.482Z,9.681149
2023-05-01T02:43:22.412Z,9.681149
2023-05-01T02:44:22.409Z,9.681241
2023-05-01T02:45:22.369Z,9.681117
2023-05-01T02:46:22.389Z,9.681037
2023-05-01T02:47:22.434Z,9.680987
2023-05-01T02:48:22.353Z,9.681074
2023-05-01T02:49:22.372Z,9.681088
2023-05-01T02:50:22.331Z,9.681119
2023-05-01T02:51:22.348Z,9.681098
2023-05-01T02:52:22.318Z,9.681062
2023-05-01T02:53:22.337Z,9.681141
2023-05-01T02:54:22.330Z,9.681074
2023-05-01T02:55:22.339Z,9.680865
2023-05-01T02:56:22.318Z,9.681035
2023-05-01T02:57:22.320Z,9.681090
2023-05-01T02:58:22.325Z,9.681062
2023-05-01T02:59:22.312Z,9.681000
2023-05-01T03:00:22.272Z,9.681044
2023-05-01T03:01:22.357Z,9.681023
2023-05-01T03:02:22.290Z,9.681093
2023-05-01T03:03:22.330Z,9.681101
2023-05-01T03:04:22.343Z,9.680946
2023-05-01T03:05:22.274Z,9.681027
2023-05-01T03:06:22.287Z,9.681059
2023-05-01T03:07:22.289Z,9.680996
2023-05-01T03:08:22.232Z,9.680936
2023-05-01T03:09:22.254Z,9.681050
2023-05-01T03:10:22.254Z,9.681093
2023-05-01T03:11:22.242Z,9.681117
2023-05-01T03:12:22.205Z,9.681088
2023-05-01T03:13:22.227Z,9.681072
2023-05-01T03:14:22.201Z,9.681017
2023-05-01T03:15:22.210Z,9.680974
2023-05-01T03:16:22.257Z,9.680989
2023-05-01T03:17:22.242Z,9.681045
2023-05-01T03:18:22.176Z,9.681067
2023-05-01T03:19:22.197Z,9.681046
2023-05-01T03:20:22.185Z,9.680974
2023-05-01T03:21:22.177Z,9.681031
2023-05-01T03:22:22.157Z,9.681072
2023-05-01T03:23:22.167Z,9.681046
2023-05-01T03:24:22.157Z,9.681125
2023-05-01T03:25:22.152Z,9.681090
2023-05-01T03:26:22.156Z,9.681038
2023-05-01T03:27:22.145Z,9.681046
2023-05-01T03:28:22.123Z,9.681029
2023-05-01T03:29:22.116Z,9.680997
2023-05-01T03:30:22.137Z,9.681017
2023-05-01T03:31:22.126Z,9.681004
2023-05-01T03:32:22.157Z,9.681027
2023-05-01T03:33:22.155Z,9.681008
2023-05-01T03:34:22.085Z,9.681027
2023-05-01T03:35:22.180Z,9.681093
2023-05-01T03:36:22.066Z,9.680990
2023-05-01T03:37:22.096Z,9.681005
2023-05-01T03:38:22.076Z,9.681000
2023-05-01T03:39:22.074Z,9.681037
2023-05-01T03:40:22.053Z,9.681042
2023-05-01T03:41:22.075Z,9.681043
2023-05-01T03:42:22.054Z,9.681043
2023-05-01T03:43:22.045Z,9.681048
2023-05-01T03:44:22.026Z,9.681047
2023-05-01T03:45:22.052Z,9.681026
2023-05-01T03:46:22.166Z,9.680970
2023-05-01T03:47:22.092Z,9.681022
2023-05-01T03:48:22.017Z,9.681003
2023-05-01T03:49:22.015Z,9.680980
2023-05-01T03:50:21.995Z,9.681023
2023-05-01T03:51:22.046Z,9.681060
2023-05-01T03:52:21.978Z,9.681092
2023-05-01T03:53:22.006Z,9.681114
2023-05-01T03:54:21.994Z,9.681102
2023-05-01T03:55:21.999Z,9.681077
2023-05-01T03:56:21.985Z,9.681052
2023-05-01T03:57:21.969Z,9.681009
2023-05-01T03:58:21.950Z,9.681022
2023-05-01T03:59:22.012Z,9.681091
2023-05-01T04:00:21.951Z,9.681040
2023-05-01T04:01:21.956Z,9.681046
2023-05-01T04:02:22.092Z,9.681052
2023-05-01T04:03:22.023Z,9.681043
2023-05-01T04:04:21.972Z,9.681067
2023-05-01T04:05:21.939Z,9.681079
2023-05-01T04:06:21.933Z,9.681106
2023-05-01T04:07:21.956Z,9.681067
2023-05-01T04:08:21.902Z,9.681067
2023-05-01T04:09:21.931Z,9.681106
2023-05-01T04:10:21.932Z,9.681064
2023-05-01T04:11:21.924Z,9.681041
2023-05-01T04:12:21.896Z,9.680989
2023-05-01T04:13:21.870Z,9.681003
2023-05-01T04:14:21.890Z,9.681040
2023-05-01T04:15:21.891Z,9.681124
2023-05-01T04:16:21.894Z,9.681104
2023-05-01T04:17:21.859Z,9.681054
2023-05-01T04:18:21.968Z,9.681088
2023-05-01T04:19:21.868Z,9.681019
2023-05-01T04:20:21.877Z,9.681012
2023-05-01T04:21:21.850Z,9.680973
2023-05-01T04:22:21.831Z,9.681030
2023-05-01T04:23:23.185Z,9.681067
2023-05-01T04:24:21.828Z,9.681018
2023-05-01T04:25:21.839Z,9.681044
2023-05-01T04:26:21.812Z,9.680980
2023-05-01T04:27:21.832Z,9.681014
2023-05-01T04:28:21.838Z,9.681029
2023-05-01T04:29:21.813Z,9.681077
2023-05-01T04:30:21.804Z,9.681036
2023-05-01T04:31:21.823Z,9.681019
2023-05-01T04:32:21.772Z,9.681066
2023-05-01T04:33:21.801Z,9.681081
2023-05-01T04:34:21.782Z,9.681088
2023-05-01T04:35:21.750Z,9.681055
2023-05-01T04:36:21.791Z,9.681047
2023-05-01T04:37:21.749Z,9.681001
2023-05-01T04:38:21.718Z,9.680994
2023-05-01T04:39:21.791Z,9.681060
2023-05-01T04:40:21.735Z,9.680960
2023-05-01T04:41:21.739Z,9.681023
2023-05-01T04:42:21.723Z,9.681042
2023-05-01T04:43:21.706Z,9.681071
2023-05-01T04:44:21.718Z,9.681038
2023-05-01T04:45:21.731Z,9.680944
2023-05-01T04:46:21.722Z,9.681061
2023-05-01T04:47:21.709Z,9.681077
2023-05-01T04:48:21.682Z,9.681056
2023-05-01T04:49:21.681Z,9.681062
2023-05-01T04:50:21.682Z,9.681098
2023-05-01T04:51:21.718Z,9.681024
2023-05-01T04:52:21.659Z,9.681071
2023-05-01T04:53:21.661Z,9.681067
2023-05-01T04:54:21.644Z,9.681151
2023-05-01T04:55:21.677Z,9.681144
2023-05-01T04:56:21.635Z,9.681069
2023-05-01T04:57:21.694Z,9.681061
2023-05-01T04:58:21.615Z,9.681120
2023-05-01T04:59:21.650Z,9.681128
2023-05-01T05:00:21.633Z,9.681069
2023-05-01T05:01:21.650Z,9.681044
2023-05-01T05:02:21.668Z,9.681090
2023-05-01T05:03:21.691Z,9.681032
2023-05-01T05:04:21.614Z,9.681089
2023-05-01T05:05:21.605Z,9.681063
2023-05-01T05:06:21.666Z,9.681020
2023-05-01T05:07:21.661Z,9.680992
2023-05-01T05:08:21.619Z,9.681028
2023-05-01T05:09:21.588Z,9.681070
2023-05-01T05:10:21.576Z,9.681016
2023-05-01T05:11:21.631Z,9.681096
2023-05-01T05:12:21.583Z,9.681121
2023-05-01T05:13:21.556Z,9.681089
2023-05-01T05:14:21.531Z,9.681157
2023-05-01T05:15:21.711Z,9.681051
2023-05-01T05:16:21.590Z,9.681034
2023-05-01T05:17:21.573Z,9.680978
2023-05-01T05:18:21.638Z,9.681050
2023-05-01T05:19:21.532Z,9.681057
2023-05-01T05:20:21.512Z,9.681052
2023-05-01T05:21:21.548Z,9.681067
2023-05-01T05:22:21.486Z,9.681099
2023-05-01T05:23:21.530Z,9.681053
2023-05-01T05:24:21.481Z,9.680997
2023-05-01T05:25:21.496Z,9.681065
2023-05-01T05:26:21.504Z,9.681067
2023-05-01T05:27:21.525Z,9.681033
2023-05-01T05:28:21.496Z,9.681082
2023-05-01T05:29:21.464Z,9.681088
2023-05-01T05:30:21.448Z,9.681090
2023-05-01T05:31:21.509Z,9.681027
2023-05-01T05:32:21.515Z,9.681110
2023-05-01T05:33:21.488Z,9.681127
2023-05-01T05:34:21.425Z,9.681103
2023-05-01T05:35:21.458Z,9.681096
2023-05-01T05:36:21.433Z,9.681090
2023-05-01T05:37:21.433Z,9.681092
2023-05-01T05:38:21.414Z,9.681076
2023-05-01T05:39:21.422Z,9.681067
2023-05-01T05:40:21.388Z,9.681020
2023-05-01T05:41:21.401Z,9.681091
2023-05-01T05:42:21.411Z,9.681120
2023-05-01T05:43:21.458Z,9.681108
2023-05-01T05:44:21.389Z,9.681071
2023-05-01T05:45:21.389Z,9.681073
2023-05-01T05:46:21.430Z,9.681118
2023-05-01T05:47:21.370Z,9.681100
2023-05-01T05:48:21.385Z,9.681070
2023-05-01T05:49:21.364Z,9.681048
2023-05-01T05:50:21.357Z,9.681058
2023-05-01T05:51:21.340Z,9.681067
2023-05-01T05:52:21.334Z,9.681063
2023-05-01T05:53:22.971Z,9.680998
2023-05-01T05:54:21.298Z,9.681082
2023-05-01T05:55:21.330Z,9.681100
2023-05-01T05:56:21.331Z,9.681106
2023-05-01T05:57:21.298Z,9.681021
2023-05-01T05:58:21.311Z,9.680941
2023-05-01T05:59:21.295Z,9.680985
2023-05-01T06:00:21.275Z,9.681045
2023-05-01T06:01:21.333Z,9.681093
2023-05-01T06:02:21.350Z,9.681087
2023-05-01T06:03:21.482Z,9.681097
2023-05-01T06:04:21.283Z,9.681146
2023-05-01T06:05:21.294Z,9.681115
2023-05-01T06:06:21.281Z,9.681110
2023-05-01T06:07:21.263Z,9.681262
2023-05-01T06:08:21.224Z,9.681117
2023-05-01T06:09:21.234Z,9.681040
2023-05-01T06:10:21.221Z,9.681148
2023-05-01T06:11:21.230Z,9.681213
2023-05-01T06:12:21.238Z,9.681093
2023-05-01T06:13:21.209Z,9.681257
2023-05-01T06:14:21.187Z,9.681190
2023-05-01T06:15:21.217Z,9.681152
2023-05-01T06:16:21.227Z,9.681101
2023-05-01T06:17:21.223Z,9.681076
2023-05-01T06:18:21.247Z,9.681077
2023-05-01T06:19:21.175Z,9.681079
2023-05-01T06:20:21.141Z,9.681089
2023-05-01T06:21:21.204Z,9.681072
2023-05-01T06:22:21.145Z,9.681093
2023-05-01T06:23:21.159Z,9.681026
2023-05-01T06:24:21.132Z,9.681034
2023-05-01T06:25:21.138Z,9.681112
2023-05-01T06:26:21.149Z,9.681145
2023-05-01T06:27:21.143Z,9.681170
2023-05-01T06:28:21.111Z,9.681123
2023-05-01T06:29:21.123Z,9.681129
2023-05-01T06:30:21.176Z,9.681121
2023-05-01T06:31:21.147Z,9.681133
2023-05-01T06:32:21.116Z,9.681137
2023-05-01T06:33:21.119Z,9.681046
2023-05-01T06:34:21.087Z,9.681114
2023-05-01T06:35:21.105Z,9.681140
2023-05-01T06:36:21.051Z,9.681112
2023-05-01T06:37:21.091Z,9.681145
2023-05-01T06:38:21.037Z,9.681131
2023-05-01T06:39:21.093Z,9.681080
2023-05-01T06:40:21.073Z,9.681110
2023-05-01T06:41:21.055Z,9.681108
2023-05-01T06:42:21.025Z,9.681107
2023-05-01T06:43:21.028Z,9.681114
2023-05-01T06:44:21.012Z,9.681140
2023-05-01T06:45:21.132Z,9.681154
2023-05-01T06:46:21.032Z,9.681131
2023-05-01T06:47:21.011Z,9.681145
2023-05-01T06:48:20.983Z,9.681181
2023-05-01T06:49:20.996Z,9.681186
2023-05-01T06:50:20.958Z,9.681187
2023-05-01T06:51:21.771Z,9.681219
2023-05-01T06:52:20.974Z,9.681183
2023-05-01T06:53:20.958Z,9.681121
2023-05-01T06:54:20.930Z,9.681183
2023-05-01T06:55:20.962Z,9.681175
2023-05-01T06:56:20.946Z,9.681200
2023-05-01T06:57:20.934Z,9.681168
2023-05-01T06:58:23.814Z,9.681190
2023-05-01T06:59:21.008Z,9.681164
2023-05-01T07:00:20.885Z,9.681156
2023-05-01T07:01:21.049Z,9.681091
2023-05-01T07:02:21.032Z,9.681102
2023-05-01T07:03:20.993Z,9.681143
2023-05-01T07:04:20.870Z,9.681156
2023-05-01T07:05:20.902Z,9.681190
2023-05-01T07:06:20.893Z,9.681181
2023-05-01T07:07:20.887Z,9.681181
2023-05-01T07:08:20.839Z,9.681164
2023-05-01T07:09:20.842Z,9.681159
2023-05-01T07:10:20.834Z,9.681156
2023-05-01T07:11:20.850Z,9.681067
2023-05-01T07:12:20.825Z,9.681119
2023-05-01T07:13:20.833Z,9.681144
2023-05-01T07:14:20.783Z,9.681138
2023-05-01T07:15:20.816Z,9.681160
2023-05-01T07:16:20.844Z,9.681123
2023-05-01T07:17:20.838Z,9.681118
2023-05-01T07:18:20.812Z,9.681073
2023-05-01T07:19:20.771Z,9.681067
2023-05-01T07:20:20.775Z,9.681089
2023-05-01T07:21:20.772Z,9.681124
2023-05-01T07:22:20.795Z,9.681128
2023-05-01T07:23:20.757Z,9.681129
2023-05-01T07:24:20.757Z,9.681087
2023-05-01T07:25:20.744Z,9.681137
2023-05-01T07:26:20.715Z,9.681124
2023-05-01T07:27:20.735Z,9.681085
2023-05-01T07:28:20.689Z,9.681139
2023-05-01T07:29:20.741Z,9.681133
2023-05-01T07:30:20.678Z,9.681108
2023-05-01T07:31:20.742Z,9.681117
2023-05-01T07:32:20.735Z,9.681151
2023-05-01T07:33:20.682Z,9.681143
2023-05-01T07:34:20.693Z,9.681119
2023-05-01T07:35:20.666Z,9.681158
2023-05-01T07:36:20.659Z,9.681097
2023-05-01T07:37:20.642Z,9.681130
2023-05-01T07:38:20.614Z,9.681225
2023-05-01T07:39:20.630Z,9.681211
2023-05-01T07:40:20.610Z,9.681171
2023-05-01T07:41:20.618Z,9.681182
2023-05-01T07:42:20.589Z,9.681067
2023-05-01T07:43:20.578Z,9.681109
2023-05-01T07:44:20.566Z,9.681111
2023-05-01T07:45:20.586Z,9.681100
2023-05-01T07:46:20.603Z,9.681072
2023-05-01T07:47:20.554Z,9.681144
2023-05-01T07:48:20.551Z,9.681191
2023-05-01T07:49:20.534Z,9.681190
2023-05-01T07:50:20.528Z,9.681184
2023-05-01T07:51:20.510Z,9.681132
2023-05-01T07:52:20.506Z,9.681165
2023-05-01T07:53:20.502Z,9.681187
2023-05-01T07:54:20.489Z,9.681091
2023-05-01T07:55:20.495Z,9.681165
2023-05-01T07:56:20.453Z,9.681051
2023-05-01T07:57:20.456Z,9.681040
2023-05-01T07:58:20.540Z,9.681078
2023-05-01T07:59:20.457Z,9.681106
2023-05-01T08:00:20.441Z,9.681152
2023-05-01T08:01:20.451Z,9.681096
2023-05-01T08:02:20.455Z,9.681112
2023-05-01T08:03:20.627Z,9.681120
2023-05-01T08:04:20.469Z,9.681077
2023-05-01T08:05:20.401Z,9.681037
2023-05-01T08:06:20.432Z,9.681232
2023-05-01T08:07:20.380Z,9.681180
2023-05-01T08:08:20.378Z,9.681133
2023-05-01T08:09:20.376Z,9.681158
2023-05-01T08:10:20.368Z,9.680997
2023-05-01T08:11:20.381Z,9.681054
2023-05-01T08:12:20.355Z,9.681148
2023-05-01T08:13:20.342Z,9.681057
2023-05-01T08:14:20.319Z,9.681183
2023-05-01T08:15:20.331Z,9.681131
2023-05-01T08:16:22.033Z,9.681170
2023-05-01T08:17:20.382Z,9.681172
2023-05-01T08:18:20.407Z,9.681067
2023-05-01T08:19:20.281Z,9.681017
2023-05-01T08:20:20.260Z,9.681013
2023-05-01T08:21:20.277Z,9.681046
2023-05-01T08:22:20.265Z,9.681044
2023-05-01T08:23:20.258Z,9.681058
2023-05-01T08:24:20.272Z,9.681114
2023-05-01T08:25:20.235Z,9.681052
2023-05-01T08:26:22.331Z,9.681147
2023-05-01T08:27:20.222Z,9.681124
2023-05-01T08:28:20.246Z,9.681252
2023-05-01T08:29:20.228Z,9.681284
2023-05-01T08:30:20.178Z,9.681273
2023-05-01T08:31:20.219Z,9.681143
2023-05-01T08:32:20.169Z,9.681093
2023-05-01T08:33:20.167Z,9.681227
2023-05-01T08:34:20.170Z,9.681231
2023-05-01T08:35:20.152Z,9.681118
2023-05-01T08:36:21.290Z,9.681181
2023-05-01T08:37:20.126Z,9.681149
2023-05-01T08:38:20.121Z,9.681099
2023-05-01T08:39:20.281Z,9.681142
2023-05-01T08:40:20.110Z,9.681143
2023-05-01T08:41:20.102Z,9.681062
2023-05-01T08:42:20.094Z,9.681041
2023-05-01T08:43:20.116Z,9.681004
2023-05-01T08:44:20.076Z,9.681026
2023-05-01T08:45:20.102Z,9.681026
2023-05-01T08:46:20.067Z,9.681243
2023-05-01T08:47:20.183Z,9.681115
2023-05-01T08:48:20.039Z,9.681129
2023-05-01T08:49:20.072Z,9.681166
2023-05-01T08:50:20.039Z,9.681167
2023-05-01T08:51:21.254Z,9.681147
2023-05-01T08:52:20.031Z,9.681313
2023-05-01T08:53:19.998Z,9.681395
2023-05-01T08:54:19.986Z,9.681437
2023-05-01T08:55:20.003Z,9.681320
2023-05-01T08:56:19.998Z,9.681258
2023-05-01T08:57:20.019Z,9.681326
2023-05-01T08:58:19.967Z,9.681303
2023-05-01T08:59:20.006Z,9.681382
2023-05-01T09:00:20.090Z,9.681465
2023-05-01T09:01:20.039Z,9.681491
2023-05-01T09:02:19.962Z,9.681467
2023-05-01T09:03:20.058Z,9.681340
2023-05-01T09:04:20.036Z,9.681333
2023-05-01T09:05:19.975Z,9.681417
2023-05-01T09:06:19.910Z,9.681349
2023-05-01T09:07:19.923Z,9.681165
2023-05-01T09:08:19.874Z,9.681040
2023-05-01T09:09:19.907Z,9.681149
2023-05-01T09:10:19.900Z,9.681198
2023-05-01T09:11:19.885Z,9.681052
2023-05-01T09:12:19.851Z,9.681145
2023-05-01T09:13:19.891Z,9.681119
2023-05-01T09:14:19.859Z,9.681182
2023-05-01T09:15:19.840Z,9.681078
2023-05-01T09:16:19.968Z,9.681123
2023-05-01T09:17:19.919Z,9.681073
2023-05-01T09:18:19.865Z,9.681058
2023-05-01T09:19:19.846Z,9.681029
2023-05-01T09:20:19.859Z,9.681108
2023-05-01T09:21:19.835Z,9.681055
2023-05-01T09:22:19.798Z,9.681051
2023-05-01T09:23:19.793Z,9.681054
2023-05-01T09:24:19.766Z,9.680996
2023-05-01T09:25:19.795Z,9.680989
2023-05-01T09:26:19.755Z,9.681039
2023-05-01T09:27:19.774Z,9.681064
2023-05-01T09:28:19.773Z,9.681070
2023-05-01T09:29:19.757Z,9.681100
2023-05-01T09:30:19.807Z,9.681040
2023-05-01T09:31:19.852Z,9.681046
2023-05-01T09:32:19.845Z,9.680997
2023-05-01T09:33:19.807Z,9.680960
2023-05-01T09:34:19.722Z,9.681090
2023-05-01T09:35:19.717Z,9.681111
2023-05-01T09:36:19.707Z,9.681126
2023-05-01T09:37:19.701Z,9.681023
2023-05-01T09:38:19.690Z,9.681062
2023-05-01T09:39:19.711Z,9.681105
2023-05-01T09:40:19.728Z,9.681074
2023-05-01T09:41:19.698Z,9.681090
2023-05-01T09:42:19.648Z,9.681030
2023-05-01T09:43:19.656Z,9.680998
2023-05-01T09:44:19.644Z,9.681046
2023-05-01T09:45:19.681Z,9.681066
2023-05-01T09:46:19.666Z,9.681056
2023-05-01T09:47:19.619Z,9.681104
2023-05-01T09:48:19.618Z,9.681037
2023-05-01T09:49:19.650Z,9.681059
2023-05-01T09:50:19.592Z,9.681028
2023-05-01T09:51:19.608Z,9.681142
2023-05-01T09:52:19.570Z,9.681042
2023-05-01T09:53:19.593Z,9.681012
2023-05-01T09:54:19.580Z,9.681151
2023-05-01T09:55:19.604Z,9.681215
2023-05-01T09:56:19.545Z,9.681130
2023-05-01T09:57:19.557Z,9.681134
2023-05-01T09:58:19.532Z,9.681094
2023-05-01T09:59:19.574Z,9.681027
2023-05-01T10:00:19.514Z,9.681021
2023-05-01T10:01:19.706Z,9.680943
2023-05-01T10:02:19.647Z,9.681171
2023-05-01T10:03:19.622Z,9.681193
2023-05-01T10:04:19.504Z,9.681181
2023-05-01T10:05:19.504Z,9.681208
2023-05-01T10:06:19.630Z,9.681149
2023-05-01T10:07:19.520Z,9.681127
2023-05-01T10:08:19.492Z,9.681122
2023-05-01T10:09:19.477Z,9.681084
2023-05-01T10:10:19.455Z,9.681009
2023-05-01T10:11:19.506Z,9.681097
2023-05-01T10:12:19.454Z,9.681135
2023-05-01T10:13:19.483Z,9.681191
2023-05-01T10:14:19.463Z,9.681130
2023-05-01T10:15:25.651Z,9.681090
2023-05-01T10:16:20.434Z,9.681107
2023-05-01T10:17:19.453Z,9.681095
2023-05-01T10:18:19.475Z,9.681005
2023-05-01T10:19:19.423Z,9.680956
2023-05-01T10:20:19.381Z,9.681048
2023-05-01T10:21:19.414Z,9.680997
2023-05-01T10:22:19.376Z,9.681017
2023-05-01T10:23:19.430Z,9.681145
2023-05-01T10:24:19.377Z,9.681108
2023-05-01T10:25:19.357Z,9.681167
2023-05-01T10:26:19.365Z,9.680985
2023-05-01T10:27:19.374Z,9.681080
2023-05-01T10:28:19.343Z,9.681095
2023-05-01T10:29:19.361Z,9.681072
2023-05-01T10:30:19.334Z,9.680999
2023-05-01T10:31:19.388Z,9.681072
2023-05-01T10:32:19.334Z,9.681112
2023-05-01T10:33:19.386Z,9.681075
2023-05-01T10:34:19.343Z,9.681108
2023-05-01T10:35:19.327Z,9.681161
2023-05-01T10:36:19.285Z,9.681168
2023-05-01T10:37:19.283Z,9.681088
2023-05-01T10:38:19.249Z,9.681010
2023-05-01T10:39:19.279Z,9.681117
2023-05-01T10:40:19.246Z,9.681102
2023-05-01T10:41:19.257Z,9.681135
2023-05-01T10:42:19.225Z,9.681245
2023-05-01T10:43:19.241Z,9.681310
2023-05-01T10:44:19.255Z,9.681324
2023-05-01T10:45:19.241Z,9.681282
2023-05-01T10:46:19.339Z,9.681357
2023-05-01T10:47:19.265Z,9.681254
2023-05-01T10:48:19.209Z,9.681262
2023-05-01T10:49:19.220Z,9.681317
2023-05-01T10:50:19.192Z,9.681257
2023-05-01T10:51:19.192Z,9.681079
2023-05-01T10:52:19.161Z,9.681125
2023-05-01T10:53:19.187Z,9.681025
2023-05-01T10:54:19.138Z,9.681023
2023-05-01T10:55:19.182Z,9.680826
2023-05-01T10:56:19.146Z,9.680680
2023-05-01T10:57:19.143Z,9.680841
2023-05-01T10:58:19.108Z,9.681009
2023-05-01T10:59:19.135Z,9.681007
2023-05-01T11:00:19.124Z,9.680964
2023-05-01T11:01:19.189Z,9.680996
2023-05-01T11:02:19.289Z,9.681012
2023-05-01T11:03:19.111Z,9.681001
2023-05-01T11:04:19.070Z,9.680987
2023-05-01T11:05:28.919Z,9.680979
2023-05-01T11:06:20.230Z,9.680942
2023-05-01T11:07:19.375Z,9.680965
2023-05-01T11:08:19.099Z,9.680986
2023-05-01T11:09:19.057Z,9.680999
2023-05-01T11:10:19.041Z,9.680975
2023-05-01T11:11:19.063Z,9.680934
2023-05-01T11:12:19.096Z,9.680886
2023-05-01T11:13:19.060Z,9.680983
2023-05-01T11:14:19.006Z,9.680988
2023-05-01T11:15:19.068Z,9.681018
2023-05-01T11:16:19.134Z,9.681048
2023-05-01T11:17:19.094Z,9.680998
2023-05-01T11:18:18.999Z,9.680953
2023-05-01T11:19:18.997Z,9.680949
2023-05-01T11:20:18.981Z,9.681024
2023-05-01T11:21:18.996Z,9.681061
2023-05-01T11:22:18.958Z,9.681013
2023-05-01T11:23:19.004Z,9.681048
2023-05-01T11:24:18.968Z,9.681045
2023-05-01T11:25:18.945Z,9.681079
2023-05-01T11:26:18.921Z,9.681012
2023-05-01T11:27:18.950Z,9.681096
2023-05-01T11:28:18.952Z,9.681058
2023-05-01T11:29:18.927Z,9.681112
2023-05-01T11:30:18.914Z,9.681093
2023-05-01T11:31:19.054Z,9.681112
2023-05-01T11:32:19.138Z,9.681047
2023-05-01T11:33:19.042Z,9.681072
2023-05-01T11:34:18.898Z,9.681066
2023-05-01T11:35:18.886Z,9.681082
2023-05-01T11:36:18.904Z,9.681046
2023-05-01T11:37:18.962Z,9.681006
2023-05-01T11:38:18.898Z,9.681129
2023-05-01T11:39:18.845Z,9.681026
2023-05-01T11:40:18.834Z,9.680995
2023-05-01T11:41:20.217Z,9.680984
2023-05-01T11:42:18.877Z,9.681076
2023-05-01T11:43:18.815Z,9.681019
2023-05-01T11:44:18.867Z,9.681027